createdAt,value
2022-10-02T00:00:22.000Z,4
2022-10-02T00:01:39.000Z,4.4
2022-10-02T00:02:55.000Z,3.9
2022-10-02T00:04:11.000Z,2.8
2022-10-02T00:05:27.000Z,3.8
2022-10-02T00:06:44.000Z,3.6
2022-10-02T00:08:00.000Z,3.3
2022-10-02T00:09:16.000Z,3.6
2022-10-02T00:10:33.000Z,3.8
2022-10-02T00:11:49.000Z,4
2022-10-02T00:13:05.000Z,3.7
2022-10-02T00:14:21.000Z,3.6
2022-10-02T00:15:38.000Z,3.7
2022-10-02T00:16:53.000Z,3.3
2022-10-02T00:18:09.000Z,3.6
2022-10-02T00:20:41.000Z,3.4
2022-10-02T00:21:56.000Z,3.3
2022-10-02T00:24:29.000Z,3.8
2022-10-02T00:25:44.000Z,3.7
2022-10-02T00:26:59.000Z,3.2
2022-10-02T00:28:16.000Z,4.4
2022-10-02T00:29:32.000Z,3.6
2022-10-02T00:30:48.000Z,4
2022-10-02T00:32:05.000Z,3.3
2022-10-02T00:33:21.000Z,3.8
2022-10-02T00:34:37.000Z,3.3
2022-10-02T00:35:53.000Z,4.1
2022-10-02T00:37:10.000Z,3.7
2022-10-02T00:38:26.000Z,4.6
2022-10-02T00:39:41.000Z,4.4
2022-10-02T00:40:57.000Z,3.3
2022-10-02T00:42:13.000Z,3.4
2022-10-02T00:43:29.000Z,3.6
2022-10-02T00:44:45.000Z,3.3
2022-10-02T00:47:18.000Z,3.6
2022-10-02T00:48:34.000Z,3.7
2022-10-02T00:49:51.000Z,4.1
2022-10-02T00:51:07.000Z,3.9
2022-10-02T00:52:23.000Z,3.7
2022-10-02T00:53:39.000Z,3.7
2022-10-02T00:54:56.000Z,4.1
2022-10-02T00:56:12.000Z,3.5
2022-10-02T00:57:27.000Z,3.8
2022-10-02T00:58:44.000Z,4.1
2022-10-02T01:00:00.000Z,3.9
2022-10-02T01:02:32.000Z,4
2022-10-02T01:03:48.000Z,4.2
2022-10-02T01:05:03.000Z,4
2022-10-02T01:06:19.000Z,3.9
2022-10-02T01:07:36.000Z,4.5
2022-10-02T01:08:52.000Z,3.8
2022-10-02T01:11:25.000Z,3.7
2022-10-02T01:12:41.000Z,4.3
2022-10-02T01:15:13.000Z,4.4
2022-10-02T01:16:30.000Z,4.1
2022-10-02T01:17:46.000Z,3.9
2022-10-02T01:19:02.000Z,4.4
2022-10-02T01:20:18.000Z,3.9
2022-10-02T01:21:33.000Z,3.8
2022-10-02T01:22:49.000Z,4
2022-10-02T01:24:05.000Z,4.1
2022-10-02T01:25:22.000Z,4.4
2022-10-02T01:26:38.000Z,3.9
2022-10-02T01:27:54.000Z,4.2
2022-10-02T01:29:11.000Z,4
2022-10-02T01:30:27.000Z,3.8
2022-10-02T01:31:43.000Z,4.3
2022-10-02T01:32:59.000Z,4.5
2022-10-02T01:34:15.000Z,4.2
2022-10-02T01:35:30.000Z,5.2
2022-10-02T01:36:46.000Z,4
2022-10-02T01:38:03.000Z,4.5
2022-10-02T01:39:19.000Z,4.1
2022-10-02T01:40:35.000Z,4.5
2022-10-02T01:41:52.000Z,5
2022-10-02T01:43:08.000Z,4
2022-10-02T01:44:24.000Z,4.1
2022-10-02T01:45:40.000Z,4
2022-10-02T01:46:57.000Z,3.8
2022-10-02T01:48:12.000Z,4
2022-10-02T01:49:27.000Z,3.7
2022-10-02T01:50:44.000Z,4
2022-10-02T01:53:16.000Z,4.6
2022-10-02T01:54:32.000Z,4.7
2022-10-02T01:55:49.000Z,3.8
2022-10-02T01:57:05.000Z,4
2022-10-02T01:58:21.000Z,4.2
2022-10-02T01:59:38.000Z,4.3
2022-10-02T02:00:54.000Z,4.4
2022-10-02T02:02:10.000Z,4.1
2022-10-02T02:05:59.000Z,4.7
2022-10-02T02:07:14.000Z,4
2022-10-02T02:08:30.000Z,4.7
2022-10-02T02:09:46.000Z,4.3
2022-10-02T02:11:02.000Z,4.3
2022-10-02T02:12:19.000Z,4.4
2022-10-02T02:13:35.000Z,5.1
2022-10-02T02:14:51.000Z,5.4
2022-10-02T02:16:07.000Z,4.3
2022-10-02T02:17:24.000Z,4.1
2022-10-02T02:18:40.000Z,4.7
2022-10-02T02:19:56.000Z,4.9
2022-10-02T02:21:12.000Z,4.5
2022-10-02T02:22:27.000Z,4.3
2022-10-02T02:23:43.000Z,4.7
2022-10-02T02:24:59.000Z,4.8
2022-10-02T02:26:16.000Z,4.5
2022-10-02T02:27:32.000Z,4.8
2022-10-02T02:28:48.000Z,5.1
2022-10-02T02:30:05.000Z,4.2
2022-10-02T02:31:21.000Z,4.6
2022-10-02T02:32:37.000Z,5.2
2022-10-02T02:33:53.000Z,4.7
2022-10-02T02:35:10.000Z,4.6
2022-10-02T02:37:42.000Z,5.2
2022-10-02T02:38:58.000Z,5.2
2022-10-02T02:40:14.000Z,5.1
2022-10-02T02:41:30.000Z,5
2022-10-02T02:42:46.000Z,5.4
2022-10-02T02:44:03.000Z,4.7
2022-10-02T02:45:19.000Z,5.2
2022-10-02T02:46:35.000Z,5.6
2022-10-02T02:47:52.000Z,5.2
2022-10-02T02:49:08.000Z,5
2022-10-02T02:50:24.000Z,6.4
2022-10-02T02:51:40.000Z,4.5
2022-10-02T02:52:57.000Z,4.4
2022-10-02T02:55:29.000Z,6
2022-10-02T02:56:45.000Z,4.8
2022-10-02T02:58:01.000Z,4.9
2022-10-02T02:59:17.000Z,5.2
2022-10-02T03:00:33.000Z,5.9
2022-10-02T03:01:50.000Z,5
2022-10-02T03:03:06.000Z,5
2022-10-02T03:04:22.000Z,4.9
2022-10-02T03:05:39.000Z,4.5
2022-10-02T03:06:55.000Z,5.5
2022-10-02T03:08:11.000Z,5.2
2022-10-02T03:09:28.000Z,5.6
2022-10-02T03:10:44.000Z,5.8
2022-10-02T03:12:00.000Z,5.5
2022-10-02T03:13:15.000Z,5.8
2022-10-02T03:14:32.000Z,5.9
2022-10-02T03:15:48.000Z,5.7
2022-10-02T03:17:04.000Z,5.3
2022-10-02T03:18:21.000Z,5.1
2022-10-02T03:19:37.000Z,5.1
2022-10-02T03:22:09.000Z,4.6
2022-10-02T03:23:26.000Z,4.9
2022-10-02T03:24:42.000Z,4.2
2022-10-02T03:25:58.000Z,4.7
2022-10-02T03:27:15.000Z,5.1
2022-10-02T03:28:31.000Z,4.2
2022-10-02T03:29:46.000Z,5.1
2022-10-02T03:31:02.000Z,5.2
2022-10-02T03:32:19.000Z,4.8
2022-10-02T03:33:35.000Z,4.1
2022-10-02T03:34:51.000Z,4.6
2022-10-02T03:36:08.000Z,5.6
2022-10-02T03:37:24.000Z,4.1
2022-10-02T03:38:40.000Z,5
2022-10-02T03:39:56.000Z,5.6
2022-10-02T03:41:13.000Z,7.3
2022-10-02T03:42:29.000Z,8.1
2022-10-02T03:43:45.000Z,10.1
2022-10-02T03:45:02.000Z,10.6
2022-10-02T03:47:33.000Z,11.3
2022-10-02T03:48:49.000Z,11.4
2022-10-02T03:51:22.000Z,11.9
2022-10-02T03:52:38.000Z,14.7
2022-10-02T03:53:55.000Z,14.4
2022-10-02T03:55:11.000Z,17.7
2022-10-02T03:56:27.000Z,16.5
2022-10-02T03:59:00.000Z,17.6
2022-10-02T04:00:15.000Z,18.1
2022-10-02T04:01:30.000Z,17.5
2022-10-02T04:02:47.000Z,16.6
2022-10-02T04:04:03.000Z,18.5
2022-10-02T04:05:19.000Z,16.7
2022-10-02T04:06:36.000Z,16.5
2022-10-02T04:07:52.000Z,16.9
2022-10-02T04:09:08.000Z,16.1
2022-10-02T04:10:24.000Z,15
2022-10-02T04:11:41.000Z,15.6
2022-10-02T04:12:57.000Z,14.2
2022-10-02T04:14:12.000Z,12.4
2022-10-02T04:15:28.000Z,12.8
2022-10-02T04:16:44.000Z,11.6
2022-10-02T04:18:00.000Z,12.7
2022-10-02T04:19:16.000Z,11.3
2022-10-02T04:20:33.000Z,11.5
2022-10-02T04:21:49.000Z,11.7
2022-10-02T04:23:05.000Z,10.7
2022-10-02T04:24:22.000Z,11.6
2022-10-02T04:25:38.000Z,11.4
2022-10-02T04:26:54.000Z,10.6
2022-10-02T04:29:27.000Z,9.5
2022-10-02T04:30:43.000Z,10.3
2022-10-02T04:31:58.000Z,11.2
2022-10-02T04:33:15.000Z,9.8
2022-10-02T04:34:31.000Z,10.8
2022-10-02T04:35:47.000Z,11.1
2022-10-02T04:38:19.000Z,11.5
2022-10-02T04:39:34.000Z,11.5
2022-10-02T04:40:49.000Z,10.8
2022-10-02T04:42:06.000Z,8.5
2022-10-02T04:43:22.000Z,11.4
2022-10-02T04:44:38.000Z,11
2022-10-02T04:45:55.000Z,11.5
2022-10-02T04:47:11.000Z,12
2022-10-02T04:48:27.000Z,11.6
2022-10-02T04:49:43.000Z,12.8
2022-10-02T04:51:00.000Z,11.5
2022-10-02T04:52:16.000Z,11.9
2022-10-02T04:53:31.000Z,11.7
2022-10-02T04:54:47.000Z,12.2
2022-10-02T04:56:03.000Z,12.7
2022-10-02T04:57:19.000Z,12.8
2022-10-02T04:58:35.000Z,13
2022-10-02T04:59:52.000Z,11.7
2022-10-02T05:01:08.000Z,12.6
2022-10-02T05:02:24.000Z,12.1
2022-10-02T05:03:40.000Z,12.6
2022-10-02T05:04:57.000Z,12.4
2022-10-02T05:06:13.000Z,11.6
2022-10-02T05:07:29.000Z,11.9
2022-10-02T05:08:46.000Z,13.5
2022-10-02T05:10:02.000Z,11.5
2022-10-02T05:11:17.000Z,12.7
2022-10-02T05:12:33.000Z,10.7
2022-10-02T05:13:49.000Z,12.7
2022-10-02T05:16:22.000Z,12
2022-10-02T05:17:38.000Z,12.7
2022-10-02T05:18:54.000Z,13.3
2022-10-02T05:20:11.000Z,12.8
2022-10-02T05:21:27.000Z,12.2
2022-10-02T05:22:43.000Z,13.8
2022-10-02T05:23:59.000Z,10.8
2022-10-02T05:25:16.000Z,10.6
2022-10-02T05:26:32.000Z,12.7
2022-10-02T05:29:03.000Z,13.3
2022-10-02T05:30:20.000Z,10.4
2022-10-02T05:31:36.000Z,11.4
2022-10-02T05:32:52.000Z,11.1
2022-10-02T05:34:08.000Z,11.2
2022-10-02T05:35:24.000Z,12.1
2022-10-02T05:36:41.000Z,11.8
2022-10-02T05:37:57.000Z,11.8
2022-10-02T05:39:13.000Z,11.6
2022-10-02T05:40:29.000Z,12.7
2022-10-02T05:41:46.000Z,13.1
2022-10-02T05:43:02.000Z,12.4
2022-10-02T05:44:17.000Z,13.1
2022-10-02T05:45:33.000Z,10.3
2022-10-02T05:46:50.000Z,10.8
2022-10-02T05:48:06.000Z,11.6
2022-10-02T05:49:22.000Z,12
2022-10-02T05:50:38.000Z,12.3
2022-10-02T05:51:55.000Z,12.4
2022-10-02T05:53:11.000Z,11.8
2022-10-02T05:54:27.000Z,11.2
2022-10-02T05:55:43.000Z,11.4
2022-10-02T05:56:59.000Z,11.5
2022-10-02T05:58:16.000Z,11.2
2022-10-02T05:59:32.000Z,10.7
2022-10-02T06:00:47.000Z,9.1
2022-10-02T06:02:03.000Z,12.1
2022-10-02T06:03:20.000Z,12
2022-10-02T06:04:36.000Z,11.2
2022-10-02T06:07:08.000Z,11.7
2022-10-02T06:08:25.000Z,10.7
2022-10-02T06:09:41.000Z,11
2022-10-02T06:10:57.000Z,11.6
2022-10-02T06:12:13.000Z,12.4
2022-10-02T06:13:29.000Z,11.8
2022-10-02T06:14:46.000Z,11.7
2022-10-02T06:16:02.000Z,11
2022-10-02T06:17:17.000Z,11.8
2022-10-02T06:18:33.000Z,12
2022-10-02T06:19:50.000Z,11.1
2022-10-02T06:21:06.000Z,11.7
2022-10-02T06:22:22.000Z,11.4
2022-10-02T06:23:38.000Z,11.3
2022-10-02T06:24:55.000Z,11.7
2022-10-02T06:26:11.000Z,11.1
2022-10-02T06:27:27.000Z,12.1
2022-10-02T06:28:43.000Z,10
2022-10-02T06:31:16.000Z,10.3
2022-10-02T06:33:48.000Z,11.3
2022-10-02T06:35:03.000Z,10.5
2022-10-02T06:36:20.000Z,11
2022-10-02T06:37:36.000Z,12
2022-10-02T06:38:52.000Z,10.8
2022-10-02T06:41:25.000Z,10.9
2022-10-02T06:42:40.000Z,8.6
2022-10-02T06:46:28.000Z,10.7
2022-10-02T06:47:44.000Z,9.7
2022-10-02T06:49:00.000Z,10.5
2022-10-02T06:51:33.000Z,11.4
2022-10-02T06:52:49.000Z,12.2
2022-10-02T06:54:05.000Z,10.5
2022-10-02T06:55:21.000Z,9.9
2022-10-02T06:56:37.000Z,10.5
2022-10-02T06:59:10.000Z,9
2022-10-02T07:00:25.000Z,9.3
2022-10-02T07:01:40.000Z,9.9
2022-10-02T07:02:56.000Z,10.7
2022-10-02T07:04:12.000Z,11
2022-10-02T07:05:28.000Z,10
2022-10-02T07:06:44.000Z,10.5
2022-10-02T07:08:01.000Z,9
2022-10-02T07:09:17.000Z,8.8
2022-10-02T07:10:33.000Z,9.4
2022-10-02T07:11:49.000Z,10.3
2022-10-02T07:13:06.000Z,9.4
2022-10-02T07:14:22.000Z,10.2
2022-10-02T07:15:37.000Z,10
2022-10-02T07:16:52.000Z,8.8
2022-10-02T07:19:25.000Z,9.7
2022-10-02T07:20:41.000Z,9.9
2022-10-02T07:23:13.000Z,9.3
2022-10-02T07:24:30.000Z,9.1
2022-10-02T07:25:46.000Z,9.3
2022-10-02T07:27:02.000Z,7.7
2022-10-02T07:28:18.000Z,7.7
2022-10-02T07:29:35.000Z,8.7
2022-10-02T07:30:51.000Z,9.1
2022-10-02T07:32:06.000Z,9.2
2022-10-02T07:33:21.000Z,8.2
2022-10-02T07:34:38.000Z,8.3
2022-10-02T07:35:54.000Z,8.4
2022-10-02T07:37:10.000Z,9
2022-10-02T07:39:43.000Z,8.8
2022-10-02T07:40:59.000Z,8.6
2022-10-02T07:42:15.000Z,7.4
2022-10-02T07:43:31.000Z,8.3
2022-10-02T07:44:47.000Z,9.3
2022-10-02T07:46:04.000Z,7.9
2022-10-02T07:48:36.000Z,7.9
2022-10-02T07:49:51.000Z,7.5
2022-10-02T07:51:08.000Z,7.7
2022-10-02T07:52:24.000Z,7.8
2022-10-02T07:53:40.000Z,7.8
2022-10-02T07:54:56.000Z,7.2
2022-10-02T07:56:13.000Z,7.2
2022-10-02T07:57:29.000Z,7.2
2022-10-02T07:58:45.000Z,7.8
2022-10-02T08:00:01.000Z,7.7
2022-10-02T08:01:18.000Z,8
2022-10-02T08:02:34.000Z,5.7
2022-10-02T08:03:50.000Z,7.4
2022-10-02T08:05:06.000Z,6.9
2022-10-02T08:06:21.000Z,7.5
2022-10-02T08:07:37.000Z,7.8
2022-10-02T08:08:53.000Z,7.8
2022-10-02T08:10:09.000Z,6.7
2022-10-02T08:11:25.000Z,7.6
2022-10-02T08:15:14.000Z,7.4
2022-10-02T08:17:47.000Z,7
2022-10-02T08:19:03.000Z,7.4
2022-10-02T08:20:19.000Z,7.2
2022-10-02T08:21:35.000Z,7.4
2022-10-02T08:22:52.000Z,6.8
2022-10-02T08:24:07.000Z,6.5
2022-10-02T08:26:38.000Z,7.2
2022-10-02T08:27:55.000Z,6.6
2022-10-02T08:29:11.000Z,6.1
2022-10-02T08:30:27.000Z,6.1
2022-10-02T08:31:43.000Z,6.1
2022-10-02T08:32:59.000Z,6.1
2022-10-02T08:34:16.000Z,6.3
2022-10-02T08:35:32.000Z,6.4
2022-10-02T08:36:48.000Z,6.3
2022-10-02T08:38:04.000Z,6.1
2022-10-02T08:39:20.000Z,6.2
2022-10-02T08:40:35.000Z,6.1
2022-10-02T08:41:51.000Z,5.8
2022-10-02T08:43:07.000Z,6
2022-10-02T08:44:24.000Z,6.9
2022-10-02T08:45:40.000Z,5.5
2022-10-02T08:46:56.000Z,5.4
2022-10-02T08:48:12.000Z,4.6
2022-10-02T08:49:29.000Z,5.1
2022-10-02T08:52:01.000Z,5.1
2022-10-02T08:53:17.000Z,5.8
2022-10-02T08:55:49.000Z,4.7
2022-10-02T08:57:04.000Z,5.4
2022-10-02T08:58:19.000Z,4.7
2022-10-02T08:59:35.000Z,5
2022-10-02T09:00:52.000Z,5
2022-10-02T09:02:08.000Z,4.7
2022-10-02T09:05:57.000Z,4.8
2022-10-02T09:07:13.000Z,5.4
2022-10-02T09:08:29.000Z,4.9
2022-10-02T09:09:45.000Z,6.1
2022-10-02T09:11:02.000Z,5.1
2022-10-02T09:12:18.000Z,4.5
2022-10-02T09:13:34.000Z,5.2
2022-10-02T09:14:49.000Z,4.8
2022-10-02T09:16:06.000Z,5
2022-10-02T09:17:22.000Z,4.3
2022-10-02T09:18:38.000Z,4.2
2022-10-02T09:19:54.000Z,5
2022-10-02T09:21:10.000Z,4.6
2022-10-02T09:22:27.000Z,3.8
2022-10-02T09:23:43.000Z,4.3
2022-10-02T09:24:59.000Z,4
2022-10-02T09:26:15.000Z,4
2022-10-02T09:27:32.000Z,4
2022-10-02T09:30:04.000Z,3.9
2022-10-02T09:31:19.000Z,3.6
2022-10-02T09:32:35.000Z,3.6
2022-10-02T09:33:50.000Z,3.9
2022-10-02T09:36:22.000Z,3.9
2022-10-02T09:37:39.000Z,3.5
2022-10-02T09:38:55.000Z,4.2
2022-10-02T09:40:11.000Z,3.9
2022-10-02T09:41:27.000Z,4.1
2022-10-02T09:42:43.000Z,3.9
2022-10-02T09:45:16.000Z,3.7
2022-10-02T09:46:32.000Z,3.5
2022-10-02T09:47:48.000Z,3.6
2022-10-02T09:49:04.000Z,3.4
2022-10-02T09:50:19.000Z,3
2022-10-02T09:51:35.000Z,3.6
2022-10-02T09:52:51.000Z,3.5
2022-10-02T09:54:08.000Z,3.3
2022-10-02T09:55:24.000Z,3.3
2022-10-02T09:56:40.000Z,3
2022-10-02T09:57:56.000Z,3.3
2022-10-02T09:59:13.000Z,3.2
2022-10-02T10:00:29.000Z,3
2022-10-02T10:01:45.000Z,3
2022-10-02T10:03:00.000Z,3
2022-10-02T10:04:16.000Z,3.2
2022-10-02T10:05:32.000Z,2.8
2022-10-02T10:08:04.000Z,3.3
2022-10-02T10:09:20.000Z,3.1
2022-10-02T10:10:37.000Z,2.9
2022-10-02T10:11:53.000Z,3.6
2022-10-02T10:13:09.000Z,3.6
2022-10-02T10:15:42.000Z,3.7
2022-10-02T10:16:58.000Z,3.5
2022-10-02T10:18:14.000Z,3.5
2022-10-02T10:20:46.000Z,3.8
2022-10-02T10:22:01.000Z,3.7
2022-10-02T10:23:16.000Z,3.1
2022-10-02T10:24:32.000Z,3.4
2022-10-02T10:27:05.000Z,3.1
2022-10-02T10:28:21.000Z,3.4
2022-10-02T10:29:37.000Z,3.5
2022-10-02T10:30:54.000Z,3.3
2022-10-02T10:32:10.000Z,2.9
2022-10-02T10:33:26.000Z,3.6
2022-10-02T10:34:42.000Z,3.1
2022-10-02T10:35:58.000Z,3
2022-10-02T10:37:15.000Z,2.8
2022-10-02T10:38:31.000Z,3.2
2022-10-02T10:39:46.000Z,2.8
2022-10-02T10:41:02.000Z,2.6
2022-10-02T10:42:19.000Z,2.7
2022-10-02T10:43:35.000Z,2.5
2022-10-02T10:46:07.000Z,3.2
2022-10-02T10:49:56.000Z,2.5
2022-10-02T10:51:12.000Z,2.7
2022-10-02T10:52:28.000Z,3
2022-10-02T10:53:45.000Z,2.5
2022-10-02T10:55:01.000Z,2.7
2022-10-02T10:56:17.000Z,3.3
2022-10-02T10:57:34.000Z,2.6
2022-10-02T10:58:50.000Z,2.3
2022-10-02T11:00:06.000Z,2.8
2022-10-02T11:01:22.000Z,2.7
2022-10-02T11:02:38.000Z,2.2
2022-10-02T11:03:55.000Z,2.1
2022-10-02T11:05:11.000Z,2.4
2022-10-02T11:06:27.000Z,2.6
2022-10-02T11:07:43.000Z,2.1
2022-10-02T11:09:00.000Z,2.2
2022-10-02T11:12:48.000Z,3
2022-10-02T11:14:04.000Z,2.5
2022-10-02T11:15:20.000Z,2.7
2022-10-02T11:16:36.000Z,3.1
2022-10-02T11:17:52.000Z,2.1
2022-10-02T11:20:25.000Z,2.5
2022-10-02T11:21:41.000Z,2.6
2022-10-02T11:22:57.000Z,2.6
2022-10-02T11:24:13.000Z,2.5
2022-10-02T11:25:30.000Z,2.2
2022-10-02T11:26:46.000Z,2.7
2022-10-02T11:28:02.000Z,2.3
2022-10-02T11:29:18.000Z,2.6
2022-10-02T11:30:34.000Z,2.5
2022-10-02T11:31:50.000Z,2.5
2022-10-02T11:33:06.000Z,2.2
2022-10-02T11:36:55.000Z,2.5
2022-10-02T11:39:27.000Z,2.4
2022-10-02T11:42:00.000Z,2.3
2022-10-02T11:43:16.000Z,2.4
2022-10-02T11:44:32.000Z,2.2
2022-10-02T11:45:48.000Z,2.2
2022-10-02T11:47:04.000Z,2.2
2022-10-02T11:50:52.000Z,2.2
2022-10-02T11:52:09.000Z,2.3
2022-10-02T11:53:25.000Z,2.6
2022-10-02T11:55:57.000Z,2.7
2022-10-02T11:57:14.000Z,2.2
2022-10-02T11:58:30.000Z,2.5
2022-10-02T11:59:46.000Z,2.3
2022-10-02T12:01:02.000Z,2.1
2022-10-02T12:02:18.000Z,2.3
2022-10-02T12:03:34.000Z,2.5
2022-10-02T12:04:50.000Z,2.4
2022-10-02T12:06:06.000Z,2.3
2022-10-02T12:07:22.000Z,2.6
2022-10-02T12:08:39.000Z,3
2022-10-02T12:09:55.000Z,2.1
2022-10-02T12:11:11.000Z,2.2
2022-10-02T12:12:27.000Z,2.2
2022-10-02T12:13:44.000Z,2.3
2022-10-02T12:15:00.000Z,2.3
2022-10-02T12:16:16.000Z,1.9
2022-10-02T12:17:31.000Z,2.6
2022-10-02T12:18:47.000Z,2.2
2022-10-02T12:21:19.000Z,2.5
2022-10-02T12:22:35.000Z,2.3
2022-10-02T12:23:52.000Z,2.6
2022-10-02T12:25:08.000Z,2.1
2022-10-02T12:27:40.000Z,2.1
2022-10-02T12:28:56.000Z,2.3
2022-10-02T12:30:13.000Z,2.2
2022-10-02T12:31:29.000Z,2.6
2022-10-02T12:32:45.000Z,2.5
2022-10-02T12:34:00.000Z,2.4
2022-10-02T12:35:16.000Z,2.4
2022-10-02T12:36:32.000Z,2.6
2022-10-02T12:37:48.000Z,2.2
2022-10-02T12:39:04.000Z,2.5
2022-10-02T12:41:37.000Z,2.6
2022-10-02T12:42:53.000Z,2.3
2022-10-02T12:44:09.000Z,2.5
2022-10-02T12:45:26.000Z,2
2022-10-02T12:46:42.000Z,2.3
2022-10-02T12:47:58.000Z,2.1
2022-10-02T12:49:14.000Z,2.1
2022-10-02T12:50:30.000Z,2
2022-10-02T12:51:46.000Z,2.7
2022-10-02T12:53:02.000Z,2.7
2022-10-02T12:54:18.000Z,2.5
2022-10-02T12:55:34.000Z,2.4
2022-10-02T12:56:51.000Z,2.4
2022-10-02T12:58:07.000Z,2.7
2022-10-02T12:59:23.000Z,2.3
2022-10-02T13:00:39.000Z,2.4
2022-10-02T13:01:55.000Z,2.5
2022-10-02T13:03:10.000Z,2.3
2022-10-02T13:05:42.000Z,2.4
2022-10-02T13:06:59.000Z,2.4
2022-10-02T13:08:15.000Z,2.4
2022-10-02T13:09:31.000Z,1.8
2022-10-02T13:10:47.000Z,2.2
2022-10-02T13:12:03.000Z,2.3
2022-10-02T13:13:19.000Z,2.1
2022-10-02T13:14:35.000Z,2.1
2022-10-02T13:15:51.000Z,1.9
2022-10-02T13:17:07.000Z,2.1
2022-10-02T13:18:24.000Z,2
2022-10-02T13:19:40.000Z,1.9
2022-10-02T13:22:12.000Z,2.5
2022-10-02T13:23:28.000Z,2
2022-10-02T13:24:43.000Z,2
2022-10-02T13:25:59.000Z,1.8
2022-10-02T13:27:15.000Z,2
2022-10-02T13:28:32.000Z,2.2
2022-10-02T13:29:48.000Z,1.8
2022-10-02T13:31:04.000Z,1.9
2022-10-02T13:32:20.000Z,2.2
2022-10-02T13:33:37.000Z,1.9
2022-10-02T13:34:53.000Z,1.9
2022-10-02T13:36:09.000Z,2.5
2022-10-02T13:37:24.000Z,2.1
2022-10-02T13:38:39.000Z,1.9
2022-10-02T13:39:56.000Z,1.8
2022-10-02T13:41:12.000Z,2.3
2022-10-02T13:43:44.000Z,2.4
2022-10-02T13:45:01.000Z,2
2022-10-02T13:46:17.000Z,2.1
2022-10-02T13:47:33.000Z,2
2022-10-02T13:50:06.000Z,1.8
2022-10-02T13:51:22.000Z,2.2
2022-10-02T13:52:38.000Z,1.9
2022-10-02T13:53:53.000Z,2.4
2022-10-02T13:55:09.000Z,2.3
2022-10-02T13:56:25.000Z,2.4
2022-10-02T13:57:41.000Z,2
2022-10-02T14:00:13.000Z,2
2022-10-02T14:01:30.000Z,2.2
2022-10-02T14:02:46.000Z,2.3
2022-10-02T14:04:02.000Z,1.9
2022-10-02T14:05:18.000Z,2.4
2022-10-02T14:06:35.000Z,2.3
2022-10-02T14:07:51.000Z,1.9
2022-10-02T14:09:07.000Z,2.1
2022-10-02T14:10:23.000Z,2.2
2022-10-02T14:11:39.000Z,2
2022-10-02T14:12:55.000Z,2.5
2022-10-02T14:14:11.000Z,2.4
2022-10-02T14:15:27.000Z,2.1
2022-10-02T14:16:44.000Z,2.2
2022-10-02T14:18:00.000Z,2.5
2022-10-02T14:19:16.000Z,2.3
2022-10-02T14:21:48.000Z,2.5
2022-10-02T14:23:05.000Z,3
2022-10-02T14:24:21.000Z,2.2
2022-10-02T14:25:37.000Z,2.5
2022-10-02T14:26:52.000Z,2
2022-10-02T14:28:08.000Z,2.1
2022-10-02T14:29:24.000Z,2
2022-10-02T14:30:40.000Z,2.4
2022-10-02T14:31:56.000Z,2.3
2022-10-02T14:33:13.000Z,2.5
2022-10-02T14:34:29.000Z,2.4
2022-10-02T14:35:45.000Z,2.3
2022-10-02T14:37:01.000Z,2.4
2022-10-02T14:38:18.000Z,2.7
2022-10-02T14:39:34.000Z,2.2
2022-10-02T14:40:49.000Z,2.4
2022-10-02T14:42:04.000Z,1.9
2022-10-02T14:43:21.000Z,2.1
2022-10-02T14:44:37.000Z,2.6
2022-10-02T14:45:53.000Z,2.1
2022-10-02T14:47:09.000Z,2.4
2022-10-02T14:48:25.000Z,2.5
2022-10-02T14:50:58.000Z,2.9
2022-10-02T14:52:14.000Z,2.2
2022-10-02T14:53:30.000Z,2.4
2022-10-02T14:56:03.000Z,2.3
2022-10-02T14:57:18.000Z,1.9
2022-10-02T14:59:50.000Z,2.3
2022-10-02T15:01:06.000Z,2.4
2022-10-02T15:02:22.000Z,2.4
2022-10-02T15:03:38.000Z,2.1
2022-10-02T15:04:55.000Z,2.2
2022-10-02T15:06:11.000Z,2.4
2022-10-02T15:08:43.000Z,2.2
2022-10-02T15:11:16.000Z,2.4
2022-10-02T15:12:32.000Z,2.3
2022-10-02T15:13:48.000Z,2.5
2022-10-02T15:15:03.000Z,2.3
2022-10-02T15:16:19.000Z,2.1
2022-10-02T15:17:35.000Z,2.4
2022-10-02T15:18:51.000Z,2.5
2022-10-02T15:20:07.000Z,2.4
2022-10-02T15:21:24.000Z,2.4
2022-10-02T15:22:40.000Z,2.3
2022-10-02T15:23:56.000Z,3.1
2022-10-02T15:26:29.000Z,2.3
2022-10-02T15:27:45.000Z,2.8
2022-10-02T15:29:01.000Z,2.2
2022-10-02T15:30:17.000Z,2.4
2022-10-02T15:31:33.000Z,2.5
2022-10-02T15:32:49.000Z,2.5
2022-10-02T15:34:05.000Z,2.3
2022-10-02T15:36:37.000Z,2.9
2022-10-02T15:37:54.000Z,2.2
2022-10-02T15:39:10.000Z,2.3
2022-10-02T15:40:26.000Z,2.2
2022-10-02T15:41:42.000Z,2.2
2022-10-02T15:42:59.000Z,2.3
2022-10-02T15:44:15.000Z,2.4
2022-10-02T15:45:31.000Z,2.5
2022-10-02T15:46:47.000Z,2.4
2022-10-02T15:48:04.000Z,2.5
2022-10-02T15:50:35.000Z,2.1
2022-10-02T15:51:51.000Z,2.6
2022-10-02T15:53:07.000Z,2.1
2022-10-02T15:54:24.000Z,2.1
2022-10-02T15:55:40.000Z,2.4
2022-10-02T15:56:56.000Z,2.6
2022-10-02T15:58:12.000Z,2.5
2022-10-02T15:59:29.000Z,2.5
2022-10-02T16:00:45.000Z,2.5
2022-10-02T16:02:01.000Z,2
2022-10-02T16:03:16.000Z,2.8
2022-10-02T16:04:32.000Z,2.2
2022-10-02T16:05:48.000Z,2.1
2022-10-02T16:07:04.000Z,2.4
2022-10-02T16:08:20.000Z,2.7
2022-10-02T16:09:37.000Z,3.2
2022-10-02T16:12:09.000Z,2.4
2022-10-02T16:13:25.000Z,1.6
2022-10-02T16:14:41.000Z,1.8
2022-10-02T16:15:58.000Z,1.7
2022-10-02T16:17:14.000Z,2
2022-10-02T16:18:30.000Z,2.1
2022-10-02T16:19:46.000Z,2.3
2022-10-02T16:21:02.000Z,1.9
2022-10-02T16:22:18.000Z,1.6
2022-10-02T16:23:34.000Z,1.9
2022-10-02T16:24:50.000Z,2.3
2022-10-02T16:26:07.000Z,2
2022-10-02T16:28:39.000Z,2.1
2022-10-02T16:29:54.000Z,1.7
2022-10-02T16:31:10.000Z,2.2
2022-10-02T16:32:26.000Z,2.3
2022-10-02T16:33:42.000Z,2.4
2022-10-02T16:34:58.000Z,2.2
2022-10-02T16:36:14.000Z,2.2
2022-10-02T16:37:31.000Z,2.3
2022-10-02T16:38:47.000Z,3
2022-10-02T16:40:03.000Z,2
2022-10-02T16:41:19.000Z,2.5
2022-10-02T16:42:36.000Z,2.2
2022-10-02T16:43:51.000Z,1.5
2022-10-02T16:45:06.000Z,1.8
2022-10-02T16:46:22.000Z,2.6
2022-10-02T16:47:39.000Z,1.9
2022-10-02T16:48:55.000Z,1.7
2022-10-02T16:50:11.000Z,1.9
2022-10-02T16:51:27.000Z,2.1
2022-10-02T16:52:44.000Z,2.4
2022-10-02T16:54:00.000Z,2
2022-10-02T16:55:16.000Z,2.4
2022-10-02T16:56:32.000Z,2.3
2022-10-02T16:57:48.000Z,2.1
2022-10-02T16:59:03.000Z,2.3
2022-10-02T17:00:19.000Z,2.2
2022-10-02T17:01:35.000Z,2.4
2022-10-02T17:02:51.000Z,2.2
2022-10-02T17:04:08.000Z,3.3
2022-10-02T17:06:40.000Z,2.6
2022-10-02T17:07:56.000Z,2.7
2022-10-02T17:09:13.000Z,2.4
2022-10-02T17:10:29.000Z,2.9
2022-10-02T17:11:45.000Z,2.4
2022-10-02T17:13:01.000Z,2.6
2022-10-02T17:14:18.000Z,3.2
2022-10-02T17:15:33.000Z,3.1
2022-10-02T17:16:49.000Z,2.7
2022-10-02T17:18:05.000Z,2.5
2022-10-02T17:19:22.000Z,2.8
2022-10-02T17:20:38.000Z,1.8
2022-10-02T17:21:54.000Z,2
2022-10-02T17:23:10.000Z,1.8
2022-10-02T17:24:26.000Z,3.2
2022-10-02T17:25:43.000Z,2.1
2022-10-02T17:26:58.000Z,2.6
2022-10-02T17:28:14.000Z,2.9
2022-10-02T17:29:30.000Z,2.6
2022-10-02T17:30:47.000Z,2.7
2022-10-02T17:32:03.000Z,2.7
2022-10-02T17:33:19.000Z,2.3
2022-10-02T17:34:35.000Z,2.3
2022-10-02T17:35:52.000Z,2.7
2022-10-02T17:37:08.000Z,2.6
2022-10-02T17:38:24.000Z,2.6
2022-10-02T17:39:41.000Z,2.6
2022-10-02T17:40:57.000Z,2.9
2022-10-02T17:42:13.000Z,3.6
2022-10-02T17:44:45.000Z,2.5
2022-10-02T17:46:01.000Z,2.9
2022-10-02T17:47:17.000Z,2.4
2022-10-02T17:48:34.000Z,2.7
2022-10-02T17:49:50.000Z,3.1
2022-10-02T17:51:06.000Z,2.9
2022-10-02T17:52:22.000Z,2.6
2022-10-02T17:53:39.000Z,2.2
2022-10-02T17:54:55.000Z,2.7
2022-10-02T17:57:28.000Z,2.6
2022-10-02T17:58:44.000Z,2.9
2022-10-02T17:59:59.000Z,3
2022-10-02T18:01:15.000Z,3.1
2022-10-02T18:02:32.000Z,2.7
2022-10-02T18:03:48.000Z,3.1
2022-10-02T18:05:04.000Z,2.9
2022-10-02T18:06:21.000Z,3.4
2022-10-02T18:07:37.000Z,3.3
2022-10-02T18:08:53.000Z,3.2
2022-10-02T18:10:09.000Z,3.9
2022-10-02T18:11:26.000Z,3.8
2022-10-02T18:12:42.000Z,3.8
2022-10-02T18:13:58.000Z,3.3
2022-10-02T18:15:15.000Z,2.9
2022-10-02T18:16:30.000Z,3.2
2022-10-02T18:17:46.000Z,2.7
2022-10-02T18:19:02.000Z,3
2022-10-02T18:20:19.000Z,2.7
2022-10-02T18:21:35.000Z,3
2022-10-02T18:22:51.000Z,3.4
2022-10-02T18:24:08.000Z,3.1
2022-10-02T18:25:24.000Z,3.2
2022-10-02T18:26:40.000Z,2.9
2022-10-02T18:27:56.000Z,3.4
2022-10-02T18:29:13.000Z,3.1
2022-10-02T18:30:29.000Z,2.9
2022-10-02T18:31:45.000Z,2.7
2022-10-02T18:33:01.000Z,3
2022-10-02T18:35:33.000Z,3.1
2022-10-02T18:36:50.000Z,2.9
2022-10-02T18:38:06.000Z,2.9
2022-10-02T18:39:22.000Z,3
2022-10-02T18:40:38.000Z,2.9
2022-10-02T18:41:55.000Z,2.4
2022-10-02T18:43:11.000Z,2.2
2022-10-02T18:44:27.000Z,2.7
2022-10-02T18:45:44.000Z,2.5
2022-10-02T18:48:16.000Z,3.1
2022-10-02T18:49:31.000Z,2.5
2022-10-02T18:50:48.000Z,3.1
2022-10-02T18:52:04.000Z,2.8
2022-10-02T18:53:20.000Z,3
2022-10-02T18:54:37.000Z,2.5
2022-10-02T18:55:53.000Z,2.7
2022-10-02T18:57:09.000Z,2.4
2022-10-02T18:58:25.000Z,3
2022-10-02T18:59:42.000Z,2.8
2022-10-02T19:00:58.000Z,3.1
2022-10-02T19:02:14.000Z,2.9
2022-10-02T19:03:31.000Z,2.6
2022-10-02T19:04:47.000Z,3.1
2022-10-02T19:06:02.000Z,2.9
2022-10-02T19:07:18.000Z,2.4
2022-10-02T19:08:35.000Z,3.2
2022-10-02T19:09:51.000Z,2.9
2022-10-02T19:11:07.000Z,3.1
2022-10-02T19:12:24.000Z,3.4
2022-10-02T19:13:40.000Z,3.1
2022-10-02T19:14:56.000Z,3.1